Time;durP1;ratioP1;P1;durP2;ratioP2;P2;SDS_P1;SDS_P2;PMS_P1;PMS_P2;Temp;Humidity;BMP_temperature;BMP_pressure;BME280_temperature;BME280_humidity;BME280_pressure;Samples;Min_cycle;Max_cycle;Signal;HPM_P1;HPM_P2
2021/04/20 00:01:03;;;;;;;2.03;1.40;;;22.90;31.50;;;;;;5062374;28;20201;-61
2021/04/20 00:03:29;;;;;;;1.63;1.53;;;22.90;31.40;;;;;;5065365;28;20208;-61
2021/04/20 00:05:55;;;;;;;1.20;1.15;;;22.90;31.40;;;;;;5066562;28;20211;-61
2021/04/20 00:08:21;;;;;;;1.50;1.40;;;22.90;31.40;;;;;;5070825;28;20698;-60
2021/04/20 00:10:47;;;;;;;1.50;1.40;;;22.90;31.30;;;;;;5074776;28;20200;-61
2021/04/20 00:13:13;;;;;;;1.60;1.50;;;22.90;32.00;;;;;;5071923;28;20194;-61
2021/04/20 00:15:39;;;;;;;2.23;1.40;;;22.90;31.30;;;;;;5086028;28;20242;-61
2021/04/20 00:18:05;;;;;;;1.40;1.30;;;22.90;31.30;;;;;;5056347;28;20280;-61
2021/04/20 00:20:31;;;;;;;2.55;1.98;;;22.90;31.30;;;;;;5056534;28;20202;-61
2021/04/20 00:22:57;;;;;;;1.42;1.30;;;22.90;31.30;;;;;;5076162;28;20207;-62
2021/04/20 00:25:23;;;;;;;1.83;1.50;;;22.90;31.30;;;;;;5066133;28;20620;-61
2021/04/20 00:27:49;;;;;;;2.53;1.20;;;22.90;31.30;;;;;;5066484;28;20205;-62
2021/04/20 00:30:15;;;;;;;1.53;1.30;;;22.90;31.10;;;;;;5061633;28;20689;-62
2021/04/20 00:32:41;;;;;;;3.03;1.40;;;22.90;31.10;;;;;;5063607;28;20209;-62
2021/04/20 00:35:07;;;;;;;1.40;1.30;;;22.90;31.20;;;;;;5068271;28;20266;-61
2021/04/20 00:37:33;;;;;;;2.15;1.45;;;22.90;31.20;;;;;;5053439;28;20224;-61
2021/04/20 00:39:59;;;;;;;1.40;1.30;;;22.90;31.20;;;;;;5059961;28;20198;-61
2021/04/20 00:42:26;;;;;;;2.08;1.50;;;22.90;31.20;;;;;;5062598;28;20205;-61
2021/04/20 00:44:52;;;;;;;1.77;1.58;;;22.90;31.30;;;;;;5068845;28;20223;-61
2021/04/20 00:47:18;;;;;;;2.30;1.50;;;22.90;31.20;;;;;;5079907;28;20612;-61
2021/04/20 00:49:44;;;;;;;2.03;1.37;;;22.90;31.30;;;;;;5056332;28;20259;-62
2021/04/20 00:52:10;;;;;;;1.37;1.23;;;22.90;31.20;;;;;;5052789;28;20200;-61
2021/04/20 00:54:36;;;;;;;1.83;1.10;;;22.90;31.20;;;;;;5059686;28;20262;-61
2021/04/20 00:57:02;;;;;;;2.83;1.60;;;22.90;31.20;;;;;;5074452;28;20200;-61
2021/04/20 00:59:28;;;;;;;2.53;1.30;;;22.90;31.30;;;;;;5075462;28;20584;-61
2021/04/20 01:01:54;;;;;;;1.30;1.20;;;22.90;31.20;;;;;;5061629;28;20200;-61
2021/04/20 01:04:20;;;;;;;2.03;1.48;;;22.90;31.30;;;;;;5073612;28;20235;-61
2021/04/20 01:06:46;;;;;;;2.00;1.40;;;22.90;31.30;;;;;;5064763;28;20205;-61
2021/04/20 01:09:12;;;;;;;1.83;1.30;;;22.90;31.30;;;;;;5049870;28;20672;-61
2021/04/20 01:11:38;;;;;;;1.40;1.20;;;22.90;31.30;;;;;;5066824;28;20677;-61
2021/04/20 01:14:04;;;;;;;1.80;1.30;;;22.90;31.30;;;;;;5089995;28;20224;-61
2021/04/20 01:16:30;;;;;;;1.80;1.40;;;22.90;31.30;;;;;;5076888;28;20220;-62
2021/04/20 01:18:56;;;;;;;1.57;1.30;;;22.90;31.30;;;;;;5070153;28;20210;-61
2021/04/20 01:21:22;;;;;;;1.40;1.30;;;22.90;31.20;;;;;;5063153;28;20257;-61
2021/04/20 01:23:48;;;;;;;1.77;1.30;;;22.90;31.30;;;;;;5070627;28;20227;-62
2021/04/20 01:26:14;;;;;;;2.30;1.50;;;22.90;31.30;;;;;;5069961;28;20299;-61
2021/04/20 01:28:40;;;;;;;1.52;1.40;;;22.90;31.30;;;;;;5053755;28;20210;-62
2021/04/20 01:31:06;;;;;;;1.50;1.40;;;22.90;31.30;;;;;;5058333;28;20201;-61
2021/04/20 01:33:32;;;;;;;1.43;1.33;;;22.90;31.30;;;;;;5066708;28;20221;-61
2021/04/20 01:35:58;;;;;;;1.35;1.25;;;22.90;31.30;;;;;;5070918;28;20603;-61
2021/04/20 01:38:24;;;;;;;1.43;1.30;;;22.90;31.30;;;;;;5074034;28;20193;-61
2021/04/20 01:40:50;;;;;;;1.70;1.37;;;22.90;31.30;;;;;;5065433;28;20202;-61
2021/04/20 01:43:16;;;;;;;1.30;1.20;;;22.90;31.30;;;;;;5072372;28;20208;-62
2021/04/20 01:45:42;;;;;;;1.40;1.23;;;22.90;31.30;;;;;;5086620;28;20219;-61
2021/04/20 01:48:08;;;;;;;1.50;1.40;;;22.90;31.30;;;;;;5077641;28;20216;-61
2021/04/20 01:50:34;;;;;;;1.65;1.52;;;22.90;31.30;;;;;;5070668;28;20205;-61
2021/04/20 01:53:00;;;;;;;1.42;1.33;;;22.90;31.30;;;;;;5062600;28;20201;-62
2021/04/20 01:55:26;;;;;;;1.87;1.60;;;22.90;31.30;;;;;;5082678;28;20236;-61
2021/04/20 01:57:52;;;;;;;1.57;1.47;;;22.90;31.40;;;;;;5066947;28;20200;-61
2021/04/20 02:00:18;;;;;;;1.63;1.52;;;22.90;31.30;;;;;;5060877;28;20572;-61
2021/04/20 02:02:44;;;;;;;1.52;1.42;;;22.80;31.30;;;;;;5062831;28;20208;-61
2021/04/20 02:05:10;;;;;;;1.40;1.30;;;22.90;31.30;;;;;;5071428;28;20225;-61
2021/04/20 02:07:36;;;;;;;1.60;1.50;;;22.90;31.30;;;;;;5055530;28;20288;-61
2021/04/20 02:10:02;;;;;;;1.13;1.13;;;22.90;31.30;;;;;;5054237;28;20232;-61
2021/04/20 02:12:28;;;;;;;1.50;1.40;;;22.90;31.40;;;;;;5064308;28;20683;-61
2021/04/20 02:14:54;;;;;;;1.63;1.40;;;22.90;31.30;;;;;;5059075;28;20244;-61
2021/04/20 02:17:20;;;;;;;1.40;1.30;;;22.90;31.30;;;;;;5092399;28;20215;-61
2021/04/20 02:19:46;;;;;;;1.30;1.20;;;22.90;31.40;;;;;;5057042;28;20374;-61
2021/04/20 02:22:12;;;;;;;1.40;1.30;;;22.80;31.30;;;;;;5071697;28;20194;-61
2021/04/20 02:24:38;;;;;;;1.40;1.30;;;22.80;31.30;;;;;;5066069;28;20633;-61
2021/04/20 02:27:03;;;;;;;1.87;1.30;;;22.90;31.30;;;;;;5089354;28;20208;-61
2021/04/20 02:29:29;;;;;;;1.50;1.40;;;22.80;31.30;;;;;;5057125;28;20213;-62
2021/04/20 02:31:55;;;;;;;1.50;1.40;;;22.90;31.40;;;;;;5076573;28;20206;-59
2021/04/20 02:34:21;;;;;;;1.90;1.43;;;22.90;31.30;;;;;;5053226;28;20236;-61
2021/04/20 02:36:49;;;;;;;1.83;1.30;;;22.80;31.30;;;;;;5055294;28;20194;-61
2021/04/20 02:39:15;;;;;;;1.40;1.30;;;22.80;31.30;;;;;;5065821;28;20205;-62
2021/04/20 02:41:41;;;;;;;1.50;1.40;;;22.90;31.30;;;;;;5055219;28;20217;-61
2021/04/20 02:44:07;;;;;;;1.30;1.20;;;22.80;31.30;;;;;;5074149;28;20226;-61
2021/04/20 02:46:33;;;;;;;1.40;1.30;;;22.90;31.30;;;;;;5075221;28;20228;-60
2021/04/20 02:48:59;;;;;;;1.53;1.20;;;22.80;31.30;;;;;;5076131;28;20218;-61
2021/04/20 02:51:25;;;;;;;1.60;1.50;;;22.90;31.30;;;;;;5071736;28;20717;-61
2021/04/20 02:53:51;;;;;;;1.80;1.58;;;22.80;31.30;;;;;;5072384;28;20266;-61
2021/04/20 02:56:17;;;;;;;1.33;1.23;;;22.90;31.30;;;;;;5072792;28;20212;-62
2021/04/20 02:58:43;;;;;;;1.63;1.50;;;22.80;31.30;;;;;;5055753;28;20198;-61
2021/04/20 03:01:11;;;;;;;1.50;1.40;;;22.80;31.30;;;;;;5059468;28;20542;-61
2021/04/20 03:03:37;;;;;;;2.17;1.30;;;22.80;31.30;;;;;;5071169;28;20266;-61
2021/04/20 03:06:03;;;;;;;1.80;1.30;;;22.80;31.30;;;;;;5061361;28;20197;-62
2021/04/20 03:08:29;;;;;;;1.37;1.27;;;22.80;31.30;;;;;;5053534;28;20194;-61
2021/04/20 03:10:55;;;;;;;1.50;1.37;;;22.80;31.30;;;;;;5063454;28;20545;-62
2021/04/20 03:13:21;;;;;;;1.83;1.40;;;22.80;31.30;;;;;;5067763;28;20211;-61
2021/04/20 03:15:47;;;;;;;1.60;1.50;;;22.80;31.40;;;;;;5076956;28;20225;-61
2021/04/20 03:18:13;;;;;;;1.73;1.40;;;22.80;31.40;;;;;;5057335;28;20200;-62
2021/04/20 03:20:39;;;;;;;1.47;1.37;;;22.80;31.40;;;;;;5069168;28;20246;-61
2021/04/20 03:23:05;;;;;;;2.08;1.30;;;22.80;31.40;;;;;;5065868;28;20642;-61
2021/04/20 03:25:31;;;;;;;1.40;1.30;;;22.80;31.30;;;;;;5056247;28;20210;-61
2021/04/20 03:27:57;;;;;;;1.33;1.23;;;22.80;31.30;;;;;;5055716;28;20197;-62
2021/04/20 03:30:23;;;;;;;1.40;1.30;;;22.80;31.30;;;;;;5074830;28;20699;-61
2021/04/20 03:32:49;;;;;;;1.33;1.23;;;22.80;31.40;;;;;;5070032;28;20201;-61
2021/04/20 03:35:15;;;;;;;1.30;1.20;;;22.80;31.30;;;;;;5063193;28;20282;-61
2021/04/20 03:37:41;;;;;;;1.93;1.23;;;22.80;31.40;;;;;;5064112;28;20666;-61
2021/04/20 03:40:07;;;;;;;1.70;1.50;;;22.80;31.30;;;;;;5059010;28;20205;-61
2021/04/20 03:42:33;;;;;;;1.60;1.50;;;22.80;31.40;;;;;;5064652;28;20589;-61
2021/04/20 03:44:59;;;;;;;1.83;1.38;;;22.80;31.40;;;;;;5057854;28;20228;-61
2021/04/20 03:47:25;;;;;;;1.50;1.40;;;22.80;31.30;;;;;;5050624;28;20671;-61
2021/04/20 03:49:51;;;;;;;1.57;1.10;;;22.80;31.50;;;;;;5061998;28;20209;-61
2021/04/20 03:52:17;;;;;;;1.37;1.27;;;22.80;31.40;;;;;;5066435;28;20208;-62
2021/04/20 03:54:43;;;;;;;1.50;1.40;;;22.80;31.40;;;;;;5081744;28;20620;-62
2021/04/20 03:57:09;;;;;;;1.60;1.50;;;22.80;31.40;;;;;;5059179;28;20197;-62
2021/04/20 03:59:35;;;;;;;2.13;1.30;;;22.80;31.40;;;;;;5064334;28;20198;-61
2021/04/20 04:02:01;;;;;;;1.50;1.30;;;22.80;31.40;;;;;;5062653;28;20197;-62
2021/04/20 04:04:27;;;;;;;1.73;1.30;;;22.80;31.40;;;;;;5077659;28;20229;-61
2021/04/20 04:06:53;;;;;;;1.40;1.30;;;22.80;31.40;;;;;;5057336;28;20641;-61
2021/04/20 04:09:19;;;;;;;1.60;1.50;;;22.80;31.40;;;;;;5064752;28;20201;-61
2021/04/20 04:11:45;;;;;;;1.57;1.20;;;22.80;31.40;;;;;;5061291;28;20200;-61
2021/04/20 04:14:11;;;;;;;1.53;1.30;;;22.80;31.40;;;;;;5064794;28;20712;-62
2021/04/20 04:16:37;;;;;;;2.40;1.60;;;22.80;31.40;;;;;;5066862;28;20202;-61
2021/04/20 04:19:03;;;;;;;1.60;1.50;;;22.80;31.40;;;;;;5061479;28;20197;-61
2021/04/20 04:21:29;;;;;;;1.43;1.27;;;22.80;31.40;;;;;;5051044;28;20207;-61
2021/04/20 04:23:55;;;;;;;2.53;1.50;;;22.80;31.40;;;;;;5050297;28;20222;-61
2021/04/20 04:26:21;;;;;;;1.40;1.30;;;22.80;31.40;;;;;;5065956;28;20202;-61
2021/04/20 04:28:47;;;;;;;1.50;1.33;;;22.80;31.30;;;;;;5057317;28;20216;-61
2021/04/20 04:31:12;;;;;;;2.00;1.53;;;22.80;31.40;;;;;;5052528;28;20526;-61
2021/04/20 04:33:38;;;;;;;1.58;1.40;;;22.80;31.40;;;;;;5059425;28;20216;-61
2021/04/20 04:36:04;;;;;;;1.50;1.40;;;22.80;31.40;;;;;;5081521;28;20745;-61
2021/04/20 04:38:30;;;;;;;1.60;1.30;;;22.80;31.50;;;;;;5050533;28;20198;-61
2021/04/20 04:40:56;;;;;;;1.50;1.40;;;22.80;31.40;;;;;;5052410;28;20197;-61
2021/04/20 04:43:22;;;;;;;1.70;1.60;;;22.80;31.40;;;;;;5055362;28;20228;-61
2021/04/20 04:45:48;;;;;;;1.50;1.40;;;22.80;31.40;;;;;;5079957;28;20211;-61
2021/04/20 04:48:14;;;;;;;1.47;1.37;;;22.80;31.40;;;;;;5079199;28;21837;-61
2021/04/20 04:50:40;;;;;;;2.10;1.40;;;22.80;31.40;;;;;;5060175;28;20242;-61
2021/04/20 04:53:06;;;;;;;1.50;1.40;;;22.80;31.40;;;;;;5053448;28;20223;-62
2021/04/20 04:55:32;;;;;;;1.50;1.40;;;22.80;31.40;;;;;;5075336;28;20313;-61
2021/04/20 04:57:58;;;;;;;2.10;1.40;;;22.80;31.50;;;;;;5068651;28;20667;-61
2021/04/20 05:00:24;;;;;;;1.30;1.20;;;22.80;31.30;;;;;;5072807;28;20268;-62
2021/04/20 05:02:50;;;;;;;1.73;1.50;;;22.80;31.40;;;;;;5074047;28;20215;-61
2021/04/20 05:05:16;;;;;;;1.70;1.40;;;22.80;31.40;;;;;;5072101;28;20236;-61
2021/04/20 05:07:42;;;;;;;1.43;1.30;;;22.80;31.40;;;;;;5074091;28;20208;-61
2021/04/20 05:10:08;;;;;;;1.10;1.10;;;22.80;31.40;;;;;;5071544;28;20579;-62
2021/04/20 05:12:34;;;;;;;2.20;1.60;;;22.80;31.40;;;;;;5054232;28;20228;-62
2021/04/20 05:15:00;;;;;;;1.83;1.73;;;22.80;31.40;;;;;;5068779;28;20243;-62
2021/04/20 05:17:26;;;;;;;1.40;1.30;;;22.80;31.40;;;;;;5073853;28;20224;-61
2021/04/20 05:19:52;;;;;;;1.50;1.40;;;22.80;31.40;;;;;;5064298;28;20194;-62
2021/04/20 05:22:18;;;;;;;1.45;1.35;;;22.80;31.40;;;;;;5073898;28;20656;-61
2021/04/20 05:24:44;;;;;;;2.43;1.40;;;22.80;31.40;;;;;;5054511;28;20236;-62
2021/04/20 05:27:10;;;;;;;1.40;1.30;;;22.80;31.50;;;;;;5074442;28;20201;-61
2021/04/20 05:29:36;;;;;;;1.40;1.30;;;22.80;31.40;;;;;;5054994;28;20276;-62
2021/04/20 05:32:02;;;;;;;1.93;1.30;;;22.80;31.40;;;;;;5071365;28;20658;-62
2021/04/20 05:34:28;;;;;;;1.48;1.38;;;22.80;31.40;;;;;;5072722;28;20228;-61
2021/04/20 05:36:54;;;;;;;1.83;1.40;;;22.80;31.40;;;;;;5069557;28;20198;-62
2021/04/20 05:39:20;;;;;;;1.47;1.37;;;22.80;31.50;;;;;;5070206;28;20296;-61
2021/04/20 05:41:46;;;;;;;1.33;1.23;;;22.80;31.40;;;;;;5075474;28;20686;-62
2021/04/20 05:44:12;;;;;;;1.60;1.50;;;22.80;31.30;;;;;;5056646;28;20232;-62
2021/04/20 05:46:38;;;;;;;1.20;1.10;;;22.80;31.60;;;;;;5081306;28;20698;-62
2021/04/20 05:49:04;;;;;;;1.73;1.47;;;22.80;31.80;;;;;;5069738;28;20193;-62
2021/04/20 05:51:30;;;;;;;1.67;1.50;;;22.80;31.70;;;;;;5080276;28;20197;-62
2021/04/20 05:53:56;;;;;;;1.53;1.43;;;22.80;31.60;;;;;;5079450;28;20601;-64
2021/04/20 05:56:22;;;;;;;1.83;1.50;;;22.80;31.50;;;;;;5078749;28;20211;-64
2021/04/20 05:58:48;;;;;;;1.40;1.30;;;22.80;31.70;;;;;;5066751;28;20671;-64
2021/04/20 06:01:14;;;;;;;3.20;1.40;;;22.80;31.70;;;;;;5075923;28;20209;-63
2021/04/20 06:03:40;;;;;;;3.10;1.40;;;22.90;31.80;;;;;;5089759;28;20220;-64
2021/04/20 06:06:05;;;;;;;2.30;1.33;;;22.90;31.60;;;;;;5072249;28;20305;-64
2021/04/20 06:08:31;;;;;;;2.07;1.47;;;22.90;31.40;;;;;;5091574;28;20200;-64
2021/04/20 06:10:57;;;;;;;1.75;1.40;;;22.90;31.50;;;;;;5066514;28;20203;-64
2021/04/20 06:13:25;;;;;;;1.67;1.58;;;22.90;31.50;;;;;;5084449;28;20216;-64
2021/04/20 06:15:51;;;;;;;2.97;1.43;;;22.90;31.40;;;;;;5087401;28;20232;-64
2021/04/20 06:18:17;;;;;;;1.43;1.30;;;22.80;31.30;;;;;;5072348;28;20276;-64
2021/04/20 06:20:43;;;;;;;1.50;1.40;;;22.90;31.40;;;;;;5071096;28;20200;-64
2021/04/20 06:23:09;;;;;;;1.73;1.30;;;22.90;31.40;;;;;;5063126;28;20224;-64
2021/04/20 06:25:35;;;;;;;1.73;1.53;;;22.90;31.20;;;;;;5072930;28;20910;-63
2021/04/20 06:28:01;;;;;;;1.50;1.40;;;22.90;31.40;;;;;;5092521;28;20200;-64
2021/04/20 06:30:27;;;;;;;1.93;1.40;;;22.90;31.30;;;;;;5077472;28;20556;-64
2021/04/20 06:32:53;;;;;;;2.60;1.57;;;22.90;31.30;;;;;;5079699;28;20338;-64
2021/04/20 06:35:19;;;;;;;1.73;1.50;;;22.90;31.30;;;;;;5067363;28;20228;-64
2021/04/20 06:37:45;;;;;;;1.77;1.40;;;22.90;31.30;;;;;;5084213;28;20212;-64
2021/04/20 06:40:11;;;;;;;2.03;1.47;;;22.90;31.30;;;;;;5061891;28;20210;-64
2021/04/20 06:42:37;;;;;;;1.60;1.50;;;22.90;31.50;;;;;;5063679;28;20231;-64
2021/04/20 06:45:03;;;;;;;3.23;1.40;;;22.90;31.50;;;;;;5083948;28;21964;-65
2021/04/20 06:47:29;;;;;;;2.23;1.50;;;22.90;31.30;;;;;;5085357;28;20310;-64
2021/04/20 06:49:55;;;;;;;1.50;1.40;;;22.80;31.30;;;;;;5074268;28;20198;-64
2021/04/20 06:52:21;;;;;;;1.63;1.50;;;22.90;31.50;;;;;;5080812;28;20572;-59
2021/04/20 06:54:47;;;;;;;1.33;1.23;;;22.90;31.50;;;;;;5081243;28;20293;-64
2021/04/20 06:57:13;;;;;;;3.57;1.70;;;22.90;31.40;;;;;;5063120;28;20211;-63
2021/04/20 06:59:39;;;;;;;1.63;1.50;;;22.90;31.30;;;;;;5068373;28;20199;-64
2021/04/20 07:02:05;;;;;;;3.47;1.47;;;22.90;31.50;;;;;;5071312;28;20206;-64
2021/04/20 07:04:31;;;;;;;3.13;1.40;;;22.90;31.50;;;;;;5068779;28;20224;-64
2021/04/20 07:06:57;;;;;;;1.50;1.40;;;22.90;31.40;;;;;;5066138;28;20196;-62
2021/04/20 07:09:23;;;;;;;1.43;1.33;;;22.90;31.30;;;;;;5080718;28;20196;-64
2021/04/20 07:11:49;;;;;;;2.10;1.50;;;22.90;31.50;;;;;;5066180;28;20721;-64
2021/04/20 07:14:15;;;;;;;1.60;1.40;;;22.90;31.50;;;;;;5068608;28;20224;-63
2021/04/20 07:16:41;;;;;;;4.17;1.73;;;22.90;31.40;;;;;;5059391;28;20209;-67
2021/04/20 07:19:07;;;;;;;4.90;1.87;;;22.90;31.70;;;;;;5062264;28;20254;-61
2021/04/20 07:21:33;;;;;;;3.07;1.50;;;22.90;32.20;;;;;;5060344;28;20201;-59
2021/04/20 07:23:59;;;;;;;5.13;2.00;;;23.00;32.30;;;;;;5085046;28;20235;-67
2021/04/20 07:26:25;;;;;;;4.13;1.47;;;23.00;32.30;;;;;;5065601;28;20209;-59
2021/04/20 07:28:51;;;;;;;2.37;1.43;;;22.90;31.80;;;;;;5071035;28;20207;-59
2021/04/20 07:31:17;;;;;;;4.47;1.43;;;22.90;31.80;;;;;;5064564;28;20949;-59
2021/04/20 07:33:43;;;;;;;3.87;1.60;;;22.90;32.80;;;;;;5049596;28;20226;-59
2021/04/20 07:36:09;;;;;;;6.10;1.70;;;23.00;32.30;;;;;;5068946;28;20240;-62
2021/04/20 07:38:35;;;;;;;1.73;1.50;;;23.00;34.50;;;;;;5051153;28;20232;-61
2021/04/20 07:41:01;;;;;;;9.40;2.07;;;23.00;33.70;;;;;;5067388;28;20205;-60
2021/04/20 07:43:27;;;;;;;4.70;2.03;;;23.00;36.60;;;;;;5068473;28;20224;-62
2021/04/20 07:45:53;;;;;;;5.73;2.20;;;23.00;35.90;;;;;;5070839;28;20204;-62
2021/04/20 07:48:19;;;;;;;7.78;2.35;;;22.90;38.10;;;;;;5065891;28;20226;-62
2021/04/20 07:50:45;;;;;;;6.30;2.40;;;22.90;38.00;;;;;;5065951;28;20207;-65
2021/04/20 07:53:11;;;;;;;7.27;2.50;;;22.90;38.10;;;;;;5062709;28;20603;-64
2021/04/20 07:55:37;;;;;;;7.03;2.97;;;22.90;37.60;;;;;;5063334;28;20294;-65
2021/04/20 07:58:03;;;;;;;10.70;2.93;;;22.90;37.80;;;;;;5059988;28;20201;-65
2021/04/20 08:00:29;;;;;;;17.10;10.17;;;22.90;39.00;;;;;;5060001;28;20236;-63
2021/04/20 08:02:55;;;;;;;16.23;11.90;;;22.10;33.20;;;;;;5051996;28;20634;-64
2021/04/20 08:05:21;;;;;;;15.20;12.17;;;20.50;31.70;;;;;;5069905;28;20300;-63
2021/04/20 08:07:48;;;;;;;12.47;9.13;;;19.60;31.90;;;;;;5049738;28;20208;-63
2021/04/20 08:10:14;;;;;;;7.73;6.10;;;20.10;34.70;;;;;;5060582;28;20695;-63
2021/04/20 08:12:40;;;;;;;10.40;6.23;;;21.00;36.10;;;;;;5058742;28;20230;-62
2021/04/20 08:15:06;;;;;;;5.47;4.43;;;21.60;35.30;;;;;;5050477;28;20234;-62
2021/04/20 08:17:32;;;;;;;5.13;4.23;;;22.00;34.50;;;;;;5058109;28;20208;-63
2021/04/20 08:19:58;;;;;;;4.60;3.60;;;22.20;34.10;;;;;;5050727;28;20696;-62
2021/04/20 08:22:24;;;;;;;6.13;3.10;;;22.40;33.90;;;;;;5065878;28;20245;-63
2021/04/20 08:24:50;;;;;;;5.63;3.63;;;22.60;33.40;;;;;;5066800;28;20313;-63
2021/04/20 08:27:16;;;;;;;5.20;3.80;;;22.70;36.10;;;;;;5060554;28;20236;-61
2021/04/20 08:29:42;;;;;;;3.20;2.90;;;22.80;35.40;;;;;;5066541;28;20202;-58
2021/04/20 08:32:08;;;;;;;3.57;2.60;;;22.90;36.20;;;;;;5070544;28;20200;-58
2021/04/20 08:34:34;;;;;;;3.70;2.77;;;23.00;35.80;;;;;;5075158;28;20242;-59
2021/04/20 08:37:00;;;;;;;3.63;2.33;;;23.00;35.80;;;;;;5036486;28;20227;-59
2021/04/20 08:39:26;;;;;;;4.87;4.03;;;23.00;36.00;;;;;;5077467;28;20216;-58
2021/04/20 08:41:52;;;;;;;3.77;2.90;;;22.90;34.20;;;;;;5064533;28;20212;-57
2021/04/20 08:44:19;;;;;;;4.10;2.47;;;22.90;34.90;;;;;;5069089;28;20644;-58
2021/04/20 08:46:47;;;;;;;3.77;2.77;;;22.90;35.40;;;;;;5071272;28;20219;-62
2021/04/20 08:49:13;;;;;;;4.27;2.80;;;23.00;35.40;;;;;;5072188;28;20211;-55
2021/04/20 08:51:39;;;;;;;3.97;2.20;;;23.00;35.30;;;;;;5054918;28;20212;-58
2021/04/20 08:54:05;;;;;;;2.60;2.33;;;22.90;36.00;;;;;;5074390;28;20235;-61
2021/04/20 08:56:31;;;;;;;3.00;2.20;;;23.00;37.00;;;;;;5060083;28;20653;-59
2021/04/20 08:58:57;;;;;;;5.30;2.13;;;23.00;35.60;;;;;;5054845;28;20259;-59
2021/04/20 09:01:23;;;;;;;4.37;2.10;;;23.00;35.50;;;;;;5055808;28;20214;-59
2021/04/20 09:03:49;;;;;;;1.77;1.60;;;23.00;35.70;;;;;;5076988;28;20217;-62
2021/04/20 09:06:15;;;;;;;2.07;1.83;;;23.00;35.80;;;;;;5031757;28;20208;-60
2021/04/20 09:08:41;;;;;;;2.93;1.77;;;22.90;36.00;;;;;;5072117;28;20261;-59
2021/04/20 09:11:09;;;;;;;3.37;1.87;;;23.00;36.30;;;;;;5075597;28;20224;-59
2021/04/20 09:13:35;;;;;;;2.47;2.17;;;23.00;35.80;;;;;;5073421;28;20229;-60
2021/04/20 09:16:01;;;;;;;2.38;1.95;;;23.00;35.50;;;;;;5073723;28;20236;-58
2021/04/20 09:18:26;;;;;;;2.50;1.97;;;22.90;35.10;;;;;;5059751;28;20200;-58
2021/04/20 09:20:53;;;;;;;2.67;2.00;;;22.90;34.80;;;;;;5069073;28;20195;-59
2021/04/20 09:23:19;;;;;;;2.67;1.60;;;22.90;34.50;;;;;;5074002;28;20624;-59
2021/04/20 09:25:45;;;;;;;2.23;2.03;;;22.90;34.40;;;;;;5073630;28;20212;-59
2021/04/20 09:28:11;;;;;;;2.53;1.83;;;22.90;34.20;;;;;;5073278;28;20268;-59
2021/04/20 09:30:37;;;;;;;2.33;1.50;;;22.90;34.40;;;;;;5069734;28;20275;-58
2021/04/20 09:33:03;;;;;;;1.80;1.70;;;22.90;34.20;;;;;;5053530;28;20312;-59
2021/04/20 09:35:29;;;;;;;3.70;1.47;;;22.90;33.80;;;;;;5066889;28;20317;-60
2021/04/20 09:37:55;;;;;;;1.73;1.63;;;22.90;34.10;;;;;;5068315;28;20194;-59
2021/04/20 09:40:21;;;;;;;2.95;1.88;;;22.90;33.90;;;;;;5060690;28;20205;-60
2021/04/20 09:42:47;;;;;;;3.40;1.80;;;22.90;33.90;;;;;;5062006;28;20274;-59
2021/04/20 09:45:13;;;;;;;2.97;1.87;;;22.90;34.90;;;;;;5080395;28;20215;-57
2021/04/20 09:47:39;;;;;;;3.10;1.50;;;23.00;36.90;;;;;;5078975;28;20211;-58
2021/04/20 09:50:05;;;;;;;2.25;1.50;;;23.00;36.50;;;;;;5070348;28;20204;-59
2021/04/20 09:52:31;;;;;;;4.13;1.67;;;23.00;36.50;;;;;;5070666;28;20239;-61
2021/04/20 09:54:57;;;;;;;2.03;1.40;;;23.00;35.70;;;;;;5068318;28;20329;-58
2021/04/20 09:57:23;;;;;;;1.90;1.50;;;23.00;36.40;;;;;;5056031;28;20829;-57
2021/04/20 09:59:49;;;;;;;1.43;1.33;;;23.00;35.50;;;;;;5060297;28;20205;-58
2021/04/20 10:02:15;;;;;;;2.27;1.40;;;23.00;35.70;;;;;;5055887;28;20229;-58
2021/04/20 10:04:41;;;;;;;3.20;1.40;;;23.00;35.80;;;;;;5071278;28;20291;-58
2021/04/20 10:07:07;;;;;;;1.50;1.40;;;23.00;35.20;;;;;;5071232;28;20220;-59
2021/04/20 10:09:33;;;;;;;1.58;1.40;;;23.00;35.10;;;;;;5071415;28;20648;-59
2021/04/20 10:11:59;;;;;;;3.03;1.40;;;23.00;34.70;;;;;;5081478;28;20737;-59
2021/04/20 10:14:25;;;;;;;1.40;1.20;;;23.00;34.50;;;;;;5074283;28;20235;-58
2021/04/20 10:16:51;;;;;;;1.40;1.30;;;23.00;34.40;;;;;;5078433;28;20963;-58
2021/04/20 10:19:17;;;;;;;2.30;1.10;;;23.00;34.00;;;;;;5089734;28;20207;-59
2021/04/20 10:21:43;;;;;;;1.40;1.30;;;23.10;33.90;;;;;;5068413;28;20687;-58
2021/04/20 10:24:09;;;;;;;2.53;1.20;;;23.10;34.00;;;;;;5063609;28;20299;-49
2021/04/20 10:26:35;;;;;;;1.53;1.27;;;23.10;33.80;;;;;;5058559;28;20208;-64
2021/04/20 10:29:01;;;;;;;1.30;1.20;;;23.10;34.50;;;;;;5069839;28;20201;-63
2021/04/20 10:31:27;;;;;;;1.63;1.27;;;23.10;34.50;;;;;;5077385;28;20208;-65
2021/04/20 10:33:53;;;;;;;1.20;1.10;;;23.00;33.90;;;;;;5059785;28;20590;-63
2021/04/20 10:36:19;;;;;;;1.40;1.30;;;23.00;33.70;;;;;;5082562;28;20232;-63
2021/04/20 10:38:45;;;;;;;1.83;1.30;;;23.00;33.90;;;;;;5057627;28;20205;-64
2021/04/20 10:41:11;;;;;;;1.50;1.40;;;23.00;34.00;;;;;;5055125;28;20201;-63
2021/04/20 10:43:37;;;;;;;1.30;1.17;;;23.00;33.50;;;;;;5058448;28;20252;-63
2021/04/20 10:46:03;;;;;;;1.30;1.20;;;23.00;33.40;;;;;;5053208;28;20267;-63
2021/04/20 10:48:29;;;;;;;2.03;1.40;;;23.00;33.50;;;;;;5056504;28;20216;-62
2021/04/20 10:50:55;;;;;;;1.83;1.40;;;23.00;34.00;;;;;;5078226;28;20206;-62
2021/04/20 10:53:21;;;;;;;1.67;1.35;;;23.00;34.30;;;;;;5062450;28;20271;-63
2021/04/20 10:55:47;;;;;;;1.43;1.33;;;23.00;34.00;;;;;;5067694;28;20588;-62
2021/04/20 10:58:13;;;;;;;1.57;1.20;;;23.00;33.90;;;;;;5087093;28;20204;-62
2021/04/20 11:00:39;;;;;;;1.25;1.10;;;23.00;33.50;;;;;;5086800;28;20207;-62
2021/04/20 11:03:04;;;;;;;2.57;1.30;;;23.00;33.30;;;;;;5050886;28;20692;-62
2021/04/20 11:05:31;;;;;;;1.30;1.20;;;23.00;33.40;;;;;;5069414;28;20200;-62
2021/04/20 11:07:57;;;;;;;1.50;1.40;;;23.00;33.80;;;;;;5076837;28;20207;-52
2021/04/20 11:10:26;;;;;;;2.83;1.50;;;23.00;35.40;;;;;;5080139;28;20205;-56
2021/04/20 11:12:52;;;;;;;1.43;1.33;;;23.00;34.40;;;;;;5067800;28;20243;-53
2021/04/20 11:15:18;;;;;;;1.57;1.20;;;23.00;34.40;;;;;;5077058;28;20235;-54
2021/04/20 11:17:44;;;;;;;2.35;1.25;;;23.00;34.20;;;;;;5069195;28;20244;-53
2021/04/20 11:20:10;;;;;;;1.40;1.30;;;23.00;34.00;;;;;;5077984;28;20208;-60
2021/04/20 11:22:36;;;;;;;2.27;1.50;;;23.10;34.90;;;;;;5057656;28;20235;-56
2021/04/20 11:25:02;;;;;;;3.47;1.90;;;23.10;35.20;;;;;;5077222;28;20208;-55
2021/04/20 11:27:28;;;;;;;51.97;42.85;;;23.10;35.00;;;;;;5068077;28;20204;-58
2021/04/20 11:29:54;;;;;;;63.35;53.38;;;23.20;35.80;;;;;;5080115;28;20197;-52
2021/04/20 11:32:20;;;;;;;121.43;97.73;;;23.20;35.50;;;;;;5072612;28;20576;-59
2021/04/20 11:34:46;;;;;;;140.60;120.28;;;23.20;35.70;;;;;;5083480;28;20223;-60
2021/04/20 11:37:12;;;;;;;152.43;135.87;;;23.20;36.60;;;;;;5060467;28;20198;-58
2021/04/20 11:39:38;;;;;;;198.95;176.82;;;23.20;37.40;;;;;;5060456;28;20212;-59
2021/04/20 11:42:04;;;;;;;247.15;221.35;;;23.20;37.40;;;;;;5061136;28;20221;-58
2021/04/20 11:44:30;;;;;;;249.75;223.82;;;23.20;38.10;;;;;;5080762;28;20238;-58
2021/04/20 11:46:56;;;;;;;259.33;232.00;;;23.20;38.80;;;;;;5061774;28;20672;-58
2021/04/20 11:49:22;;;;;;;268.90;241.40;;;23.20;37.90;;;;;;5058905;28;20213;-57
2021/04/20 11:51:48;;;;;;;281.15;252.00;;;23.20;38.80;;;;;;5055426;28;20221;-58
2021/04/20 11:54:14;;;;;;;286.50;256.52;;;23.20;39.10;;;;;;5054321;28;20640;-59
2021/04/20 11:56:40;;;;;;;280.15;251.10;;;23.20;39.00;;;;;;5062307;28;20204;-58
2021/04/20 11:59:06;;;;;;;293.80;263.30;;;23.20;39.00;;;;;;5063463;28;20197;-57
2021/04/20 12:01:32;;;;;;;278.33;249.43;;;23.20;39.00;;;;;;5058714;28;20545;-58
2021/04/20 12:03:59;;;;;;;286.13;255.97;;;23.20;38.60;;;;;;5059069;28;20224;-58
2021/04/20 12:06:27;;;;;;;283.40;253.18;;;23.20;38.70;;;;;;5055055;28;20228;-58
2021/04/20 12:08:53;;;;;;;277.92;248.43;;;23.20;38.20;;;;;;5055970;28;20273;-57
2021/04/20 12:11:19;;;;;;;276.67;248.18;;;23.20;38.40;;;;;;5073994;28;20200;-58
2021/04/20 12:13:46;;;;;;;283.52;254.70;;;23.20;38.30;;;;;;5054645;28;20222;-58
2021/04/20 12:16:12;;;;;;;272.67;243.93;;;23.20;37.80;;;;;;5067027;28;20625;-59
2021/04/20 12:18:38;;;;;;;291.58;260.88;;;23.20;37.40;;;;;;5066512;28;20243;-58
2021/04/20 12:21:04;;;;;;;281.13;251.80;;;23.20;37.40;;;;;;5053787;28;20216;-57
2021/04/20 12:23:31;;;;;;;285.63;255.30;;;23.20;38.10;;;;;;5062934;28;20224;-58
2021/04/20 12:25:57;;;;;;;280.63;250.93;;;23.20;37.40;;;;;;5054273;28;20213;-59
2021/04/20 12:28:23;;;;;;;278.17;249.40;;;23.20;37.40;;;;;;5069515;28;20223;-58
2021/04/20 12:30:49;;;;;;;287.73;258.03;;;23.20;37.40;;;;;;5062461;28;20565;-58
2021/04/20 12:33:15;;;;;;;284.10;253.60;;;23.20;37.40;;;;;;5068133;28;20235;-57
2021/04/20 12:35:41;;;;;;;285.67;255.83;;;23.20;37.40;;;;;;5059054;28;20683;-58